Time;durP1;ratioP1;P1;durP2;ratioP2;P2;SDS_P1;SDS_P2;PMS_P1;PMS_P2;Temp;Humidity;BMP_temperature;BMP_pressure;BME280_temperature;BME280_humidity;BME280_pressure;Samples;Min_cycle;Max_cycle;Signal;HPM_P1;HPM_P2
2021/05/22 00:00:12;;;;;;;3.63;3.00;;;;;;;15.89;55.89;99779.69;4899761;29;20035;-79
2021/05/22 00:02:38;;;;;;;3.47;2.60;;;;;;;15.97;56.14;99815.94;4899377;29;20408;-80
2021/05/22 00:05:05;;;;;;;3.60;2.40;;;;;;;15.70;55.79;99779.72;4899506;29;20024;-80
2021/05/22 00:07:31;;;;;;;4.22;2.90;;;;;;;14.96;55.94;99645.00;4916785;29;20020;-80
2021/05/22 00:09:56;;;;;;;5.35;2.90;;;;;;;15.72;55.77;99773.16;4916450;29;20513;-80
2021/05/22 00:12:24;;;;;;;2.90;2.60;;;;;;;15.72;55.97;99786.47;4916516;29;20028;-80
2021/05/22 00:14:51;;;;;;;3.42;3.13;;;;;;;15.96;56.07;99816.16;4916859;29;20391;-79
2021/05/22 00:17:16;;;;;;;4.30;3.05;;;;;;;15.93;55.97;99816.56;4899661;29;20063;-79
2021/05/22 00:19:41;;;;;;;3.50;2.50;;;;;;;15.57;55.79;99769.81;4899202;29;20055;-80
2021/05/22 00:22:07;;;;;;;3.63;2.92;;;;;;;15.61;55.90;99795.06;4916056;29;20031;-80
2021/05/22 00:24:32;;;;;;;2.72;2.53;;;;;;;15.39;55.94;99764.28;4898892;29;20024;-80
2021/05/22 00:26:58;;;;;;;4.70;2.72;;;;;;;15.70;55.72;99828.44;4915746;29;20484;-80
2021/05/22 00:29:23;;;;;;;3.90;2.60;;;;;;;15.62;56.28;99818.00;4899095;29;20028;-80
2021/05/22 00:31:48;;;;;;;3.33;3.03;;;;;;;15.57;56.37;99829.22;4916309;29;20151;-80
2021/05/22 00:34:14;;;;;;;2.85;2.53;;;;;;;14.85;56.39;99710.19;4916199;29;20115;-80
2021/05/22 00:36:39;;;;;;;3.83;3.10;;;;;;;15.10;56.41;99757.50;4916237;29;20096;-80
2021/05/22 00:39:05;;;;;;;4.57;3.90;;;;;;;15.38;56.51;99805.22;4916035;29;20508;-80
2021/05/22 00:41:31;;;;;;;4.15;3.05;;;;;;;14.79;56.62;99731.44;4916326;29;20020;-80
2021/05/22 00:43:56;;;;;;;4.43;2.70;;;;;;;14.72;56.97;99751.84;4899087;29;20032;-80
2021/05/22 00:46:22;;;;;;;2.97;2.47;;;;;;;15.30;56.79;99834.69;4899057;29;20099;-80
2021/05/22 00:48:47;;;;;;;3.13;2.83;;;;;;;15.30;56.77;99838.16;4914740;29;20024;-80
2021/05/22 00:51:13;;;;;;;3.63;2.60;;;;;;;14.83;56.85;99772.53;4916008;29;20123;-80
2021/05/22 00:53:38;;;;;;;2.80;2.60;;;;;;;15.29;56.70;99838.34;4898728;29;20024;-80
2021/05/22 00:56:04;;;;;;;4.28;2.70;;;;;;;15.14;56.73;99823.38;4915886;29;20155;-80
2021/05/22 00:58:30;;;;;;;2.60;2.40;;;;;;;15.30;56.52;99835.50;4915772;29;20024;-80
2021/05/22 01:00:58;;;;;;;3.53;2.58;;;;;;;15.31;56.42;99833.66;4915902;29;20025;-80
2021/05/22 01:03:26;;;;;;;2.80;2.53;;;;;;;15.31;56.38;99833.66;4898605;29;20083;-80
2021/05/22 01:06:00;;;;;;;2.80;2.60;;;;;;;14.37;56.21;99688.16;4915714;29;20021;-80
2021/05/22 01:08:25;;;;;;;3.53;2.50;;;;;;;15.10;56.25;99810.69;4899381;29;20087;-79
2021/05/22 01:11:00;;;;;;;3.10;2.90;;;;;;;14.93;56.62;99779.16;4917253;29;20024;-80
2021/05/22 01:13:28;;;;;;;4.25;2.78;;;;;;;15.30;56.50;99838.16;4915807;29;20024;-80
2021/05/22 01:15:55;;;;;;;2.85;2.53;;;;;;;15.32;56.45;99841.44;4915903;29;20028;-80
2021/05/22 01:18:22;;;;;;;2.60;2.35;;;;;;;15.31;56.38;99834.47;4898636;29;20024;-80
2021/05/22 01:20:58;;;;;;;2.55;2.35;;;;;;;15.15;56.49;99830.34;4898703;29;20028;-80
2021/05/22 01:23:41;;;;;;;2.90;2.38;;;;;;;14.77;56.36;99778.66;4915491;29;20079;-80
2021/05/22 01:26:10;;;;;;;3.15;2.70;;;;;;;14.96;56.43;99819.66;4898622;29;20024;-80
2021/05/22 01:28:36;;;;;;;3.10;2.80;;;;;;;14.86;56.54;99801.38;4915673;29;20502;-79
2021/05/22 01:31:05;;;;;;;3.42;2.97;;;;;;;15.13;56.33;99845.69;4898439;29;20059;-80
2021/05/22 01:33:32;;;;;;;4.90;2.88;;;;;;;14.74;56.28;99789.69;4915485;29;20024;-79
2021/05/22 01:35:57;;;;;;;3.30;2.65;;;;;;;14.86;56.47;99806.69;4915408;29;20048;-80
2021/05/22 01:38:23;;;;;;;3.50;3.15;;;;;;;14.44;56.20;99734.19;4900303;29;20047;-80
2021/05/22 01:40:50;;;;;;;3.13;2.72;;;;;;;14.89;56.16;99807.16;4901898;29;20495;-80
2021/05/22 01:43:15;;;;;;;4.80;3.20;;;;;;;14.76;56.52;99809.72;4901799;29;20447;-80
2021/05/22 01:45:44;;;;;;;3.50;3.00;;;;;;;14.97;56.48;99845.22;4918916;29;20030;-80
2021/05/22 01:48:16;;;;;;;5.45;3.13;;;;;;;14.98;56.67;99850.34;4901767;29;20054;-80
2021/05/22 01:50:46;;;;;;;3.40;3.08;;;;;;;14.62;56.53;99806.19;4918519;29;20105;-80
2021/05/22 01:53:14;;;;;;;4.70;3.22;;;;;;;14.84;56.43;99824.69;4918975;29;20036;-77
2021/05/22 01:55:40;;;;;;;3.78;3.10;;;;;;;14.45;56.33;99764.22;4918672;29;20024;-80
2021/05/22 01:58:09;;;;;;;3.38;2.90;;;;;;;14.45;56.57;99772.19;4918974;29;20024;-80
2021/05/22 02:00:35;;;;;;;3.85;2.92;;;;;;;14.24;56.55;99736.72;4901487;29;20035;-80
2021/05/22 02:03:09;;;;;;;5.28;2.97;;;;;;;14.87;56.39;99835.78;4901326;29;20020;-80
2021/05/22 02:05:35;;;;;;;4.20;2.95;;;;;;;14.67;56.54;99826.06;4918313;29;20510;-80
2021/05/22 02:08:02;;;;;;;2.97;2.72;;;;;;;14.43;56.63;99791.00;4901445;29;20024;-80
2021/05/22 02:10:29;;;;;;;3.33;2.80;;;;;;;14.39;56.72;99789.72;4901355;29;20059;-80
2021/05/22 02:12:57;;;;;;;4.35;3.17;;;;;;;14.27;56.42;99770.84;4901446;29;20028;-80
2021/05/22 02:15:26;;;;;;;3.85;3.00;;;;;;;14.58;56.55;99828.88;4901243;29;20455;-80
2021/05/22 02:17:53;;;;;;;2.72;2.47;;;;;;;14.34;56.44;99783.34;4901132;29;20035;-80
2021/05/22 02:20:21;;;;;;;4.63;2.95;;;;;;;14.52;56.44;99810.25;4901542;29;20132;-80
2021/05/22 02:22:47;;;;;;;2.70;2.50;;;;;;;14.76;56.31;99851.44;4918452;29;20028;-80
2021/05/22 02:25:14;;;;;;;2.80;2.55;;;;;;;14.78;55.81;99847.56;4918299;29;20028;-79
2021/05/22 02:27:40;;;;;;;4.25;2.65;;;;;;;14.17;55.85;99764.25;4918392;29;20036;-79
2021/05/22 02:30:08;;;;;;;2.75;2.50;;;;;;;14.52;56.04;99811.06;4918173;29;20039;-80
2021/05/22 02:32:36;;;;;;;2.83;2.58;;;;;;;14.69;55.99;99842.63;4901081;29;20031;-79
2021/05/22 02:35:03;;;;;;;3.58;2.70;;;;;;;14.61;55.96;99832.97;4901020;29;20566;-79
2021/05/22 02:37:31;;;;;;;4.55;2.60;;;;;;;14.66;56.33;99845.66;4900600;29;20514;-79
2021/05/22 02:40:00;;;;;;;3.15;2.80;;;;;;;14.64;55.96;99845.88;4904833;29;20047;-79
2021/05/22 02:42:30;;;;;;;3.85;2.97;;;;;;;14.56;56.16;99841.53;4900657;29;20063;-79
2021/05/22 02:44:57;;;;;;;3.20;2.90;;;;;;;14.53;56.23;99839.28;4917454;29;20031;-80
2021/05/22 02:47:26;;;;;;;3.05;2.72;;;;;;;14.51;56.38;99843.16;4917477;29;20051;-79
2021/05/22 02:49:53;;;;;;;3.65;3.35;;;;;;;13.67;56.35;99716.56;4900543;29;20031;-79
2021/05/22 02:52:20;;;;;;;2.92;2.72;;;;;;;14.18;56.29;99803.06;4917517;29;20107;-80
2021/05/22 02:54:48;;;;;;;6.63;3.22;;;;;;;14.36;56.28;99847.72;4900361;29;20591;-80
2021/05/22 02:57:14;;;;;;;4.55;3.05;;;;;;;14.02;56.56;99809.47;4900502;29;20028;-79
2021/05/22 02:59:40;;;;;;;5.45;3.20;;;;;;;13.86;56.41;99769.97;4900559;29;20032;-79
2021/05/22 03:02:07;;;;;;;4.55;3.30;;;;;;;14.20;56.68;99809.00;4917140;29;20582;-79
2021/05/22 03:04:34;;;;;;;4.90;3.30;;;;;;;13.84;56.43;99766.69;4900200;29;20020;-79
2021/05/22 03:07:01;;;;;;;4.70;3.30;;;;;;;14.40;56.72;99857.75;4917288;29;20114;-79
2021/05/22 03:09:26;;;;;;;5.72;3.42;;;;;;;13.96;56.33;99791.66;4917239;29;20100;-79
2021/05/22 03:11:52;;;;;;;6.30;3.60;;;;;;;13.84;56.42;99778.13;4917168;29;20036;-79
2021/05/22 03:14:17;;;;;;;3.53;3.20;;;;;;;14.31;56.49;99865.06;4917028;29;20029;-79
2021/05/22 03:16:43;;;;;;;5.07;3.88;;;;;;;13.65;56.20;99742.47;4900225;29;20107;-79
2021/05/22 03:19:08;;;;;;;8.73;3.85;;;;;;;14.12;56.57;99830.38;4917164;29;20043;-79
2021/05/22 03:21:34;;;;;;;7.57;3.60;;;;;;;13.92;56.71;99827.56;4915833;29;20024;-79
2021/05/22 03:23:59;;;;;;;7.28;3.53;;;;;;;13.84;56.92;99799.34;4900289;29;20083;-79
2021/05/22 03:26:25;;;;;;;7.03;3.47;;;;;;;14.26;56.67;99867.47;4916930;29;20031;-79
2021/05/22 03:28:50;;;;;;;3.95;3.33;;;;;;;14.17;56.71;99860.69;4916952;29;20476;-79
2021/05/22 03:31:15;;;;;;;3.80;3.50;;;;;;;14.14;56.72;99854.94;4917037;29;20039;-79
2021/05/22 03:33:41;;;;;;;4.93;3.30;;;;;;;14.00;56.75;99843.38;4899844;29;20226;-79
2021/05/22 03:36:07;;;;;;;4.35;3.95;;;;;;;14.34;56.24;99903.69;4916881;29;20487;-79
2021/05/22 03:38:32;;;;;;;5.25;3.38;;;;;;;13.27;56.32;99738.44;4899663;29;20115;-79
2021/05/22 03:40:58;;;;;;;4.95;3.30;;;;;;;14.32;56.13;99887.94;4899911;29;20036;-79
2021/05/22 03:43:23;;;;;;;5.90;3.47;;;;;;;14.14;56.39;99852.28;4916630;29;20091;-79
2021/05/22 03:45:49;;;;;;;5.32;3.50;;;;;;;13.76;56.31;99794.19;4899575;29;20060;-79
2021/05/22 03:48:14;;;;;;;4.03;3.63;;;;;;;14.13;56.39;99846.16;4899580;29;20387;-79
2021/05/22 03:50:40;;;;;;;4.43;3.70;;;;;;;13.98;56.23;99822.31;4899621;29;20079;-79
2021/05/22 03:53:07;;;;;;;5.45;3.75;;;;;;;13.61;56.22;99758.97;4899357;29;20168;-79
2021/05/22 03:55:33;;;;;;;6.65;4.10;;;;;;;14.57;56.12;99906.94;4899496;29;20529;-80
2021/05/22 03:57:58;;;;;;;4.85;3.67;;;;;;;13.75;55.98;99766.00;4916462;29;20036;-79
2021/05/22 04:00:24;;;;;;;4.18;3.78;;;;;;;14.69;56.44;99917.03;4899064;29;20028;-79
2021/05/22 04:02:49;;;;;;;5.55;4.40;;;;;;;14.74;56.00;99920.75;4916287;29;20028;-79
2021/05/22 04:05:15;;;;;;;6.18;3.97;;;;;;;14.38;56.32;99848.34;4916228;29;20024;-79
2021/05/22 04:07:40;;;;;;;8.10;3.83;;;;;;;14.40;56.07;99867.56;4918967;29;20035;-79
2021/05/22 04:10:06;;;;;;;6.55;4.72;;;;;;;14.79;55.93;99904.22;4918287;29;20027;-79
2021/05/22 04:12:32;;;;;;;4.88;4.30;;;;;;;14.60;56.40;99906.56;4916249;29;20087;-79
2021/05/22 04:14:57;;;;;;;14.05;4.18;;;;;;;14.77;56.11;99900.94;4899249;29;20025;-79
2021/05/22 04:17:23;;;;;;;5.63;4.60;;;;;;;14.93;56.19;99927.22;4899255;29;20491;-79
2021/05/22 04:19:48;;;;;;;8.75;4.53;;;;;;;13.77;56.26;99733.97;4916059;29;20024;-79
2021/05/22 04:22:14;;;;;;;5.88;4.60;;;;;;;14.80;56.25;99892.56;4916098;29;20036;-79
2021/05/22 04:24:39;;;;;;;5.57;4.07;;;;;;;13.79;55.95;99721.31;4899055;29;20039;-79
2021/05/22 04:27:05;;;;;;;5.28;3.90;;;;;;;14.86;56.38;99889.13;4899019;29;20032;-79
2021/05/22 04:29:30;;;;;;;5.68;3.92;;;;;;;15.04;56.13;99913.38;4899133;29;20028;-79
2021/05/22 04:31:56;;;;;;;5.85;3.78;;;;;;;15.24;56.08;99929.41;4916303;29;20039;-79
2021/05/22 04:34:21;;;;;;;3.72;3.30;;;;;;;15.24;56.23;99929.41;4916244;29;20042;-79
2021/05/22 04:36:46;;;;;;;4.18;2.60;;;;;;;15.29;56.10;99926.16;4898945;29;20020;-79
2021/05/22 04:39:12;;;;;;;5.15;2.78;;;;;;;15.12;56.37;99897.22;4898525;29;20060;-79
2021/05/22 04:41:38;;;;;;;3.40;3.03;;;;;;;15.03;56.24;99868.34;4898858;29;20039;-79
2021/05/22 04:44:03;;;;;;;3.60;3.13;;;;;;;15.50;56.38;99937.47;4915884;29;20028;-79
2021/05/22 04:46:29;;;;;;;8.43;2.97;;;;;;;15.21;56.39;99872.09;4898842;29;20036;-79
2021/05/22 04:48:55;;;;;;;3.90;3.13;;;;;;;15.27;55.98;99860.66;4916043;29;20083;-79
2021/05/22 04:51:22;;;;;;;2.85;2.55;;;;;;;15.65;55.89;99920.59;4899072;29;20055;-79
2021/05/22 04:53:47;;;;;;;4.22;3.03;;;;;;;15.51;55.75;99895.72;4898908;29;20495;-79
2021/05/22 04:56:13;;;;;;;4.00;2.78;;;;;;;15.11;55.91;99807.84;4915922;29;20032;-79
2021/05/22 04:58:38;;;;;;;4.22;2.75;;;;;;;15.71;55.78;99903.81;4915768;29;20031;-79
2021/05/22 05:01:03;;;;;;;2.75;2.55;;;;;;;15.61;55.48;99879.41;4898907;29;20032;-79
2021/05/22 05:03:29;;;;;;;4.55;3.05;;;;;;;15.29;55.56;99819.75;4898819;29;20035;-79
2021/05/22 05:05:54;;;;;;;4.70;3.30;;;;;;;15.96;55.46;99915.50;4898975;29;20028;-79
2021/05/22 05:08:21;;;;;;;6.13;3.53;;;;;;;15.75;55.54;99879.22;4898903;29;20036;-79
2021/05/22 05:10:50;;;;;;;3.85;3.55;;;;;;;16.09;55.17;99920.84;4898921;29;20416;-79
2021/05/22 05:13:16;;;;;;;5.03;3.70;;;;;;;15.89;55.39;99877.41;4916546;29;20518;-79
2021/05/22 05:15:42;;;;;;;5.38;3.50;;;;;;;15.95;55.45;99878.44;4919379;29;20024;-79
2021/05/22 05:18:07;;;;;;;5.10;4.22;;;;;;;15.97;55.18;99884.38;4919367;29;20031;-79
2021/05/22 05:20:34;;;;;;;7.60;3.60;;;;;;;16.14;54.95;99915.72;4919361;29;20039;-79
2021/05/22 05:22:59;;;;;;;4.90;3.95;;;;;;;15.86;55.10;99856.50;4919572;29;20099;-79
2021/05/22 05:25:25;;;;;;;3.40;3.20;;;;;;;16.19;55.00;99917.75;4902453;29;20456;-79
2021/05/22 05:27:50;;;;;;;6.60;3.40;;;;;;;16.21;55.37;99935.19;4902543;29;20463;-79
2021/05/22 05:30:16;;;;;;;3.80;3.50;;;;;;;15.77;55.08;99847.91;4902173;29;20032;-79
2021/05/22 05:32:42;;;;;;;4.07;3.75;;;;;;;16.36;55.26;99920.84;4902026;29;20059;-79
2021/05/22 05:35:11;;;;;;;4.93;3.83;;;;;;;15.92;55.24;99842.38;4902305;29;20058;-79
2021/05/22 05:37:38;;;;;;;5.43;3.30;;;;;;;16.51;55.09;99924.94;4908771;29;20038;-79
2021/05/22 05:40:04;;;;;;;5.10;3.70;;;;;;;16.48;55.25;99916.53;4919228;29;20028;-79
2021/05/22 05:42:29;;;;;;;3.95;3.38;;;;;;;16.43;55.19;99903.00;4901995;29;20047;-79
2021/05/22 05:44:55;;;;;;;3.45;3.15;;;;;;;16.44;54.61;99905.47;4918939;29;20032;-79
2021/05/22 05:47:20;;;;;;;3.20;2.67;;;;;;;16.47;54.41;99894.41;4918813;29;20032;-79
2021/05/22 05:49:45;;;;;;;2.80;2.60;;;;;;;16.70;54.52;99928.63;4918729;29;20517;-79
2021/05/22 05:52:11;;;;;;;2.90;2.40;;;;;;;16.67;54.62;99922.91;4901685;29;20024;-79
2021/05/22 05:54:36;;;;;;;3.33;2.97;;;;;;;16.31;54.77;99840.69;4918657;29;20028;-79
2021/05/22 05:57:02;;;;;;;5.20;2.60;;;;;;;16.39;54.48;99853.81;4901805;29;20058;-79
2021/05/22 05:59:27;;;;;;;3.50;3.17;;;;;;;16.84;54.15;99913.41;4918635;29;20107;-79
2021/05/22 06:01:53;;;;;;;3.53;3.22;;;;;;;16.41;54.08;99841.94;4901536;29;20036;-79
2021/05/22 06:04:18;;;;;;;3.80;2.80;;;;;;;16.74;54.05;99886.38;4918993;29;20017;-79
2021/05/22 06:06:44;;;;;;;3.88;2.90;;;;;;;17.28;53.63;99960.69;4901450;29;20020;-79
2021/05/22 06:09:10;;;;;;;4.32;2.95;;;;;;;17.30;53.49;99952.47;4901504;29;20414;-79
2021/05/22 06:11:36;;;;;;;3.30;3.00;;;;;;;17.41;53.16;99959.81;4901502;29;20032;-79
2021/05/22 06:14:03;;;;;;;3.20;2.88;;;;;;;17.53;52.52;99960.78;4901372;29;20031;-79
2021/05/22 06:16:33;;;;;;;3.25;2.95;;;;;;;17.41;52.36;99927.78;4901310;29;20075;-79
2021/05/22 06:18:59;;;;;;;3.83;3.47;;;;;;;17.47;51.90;99925.09;4901460;29;20023;-79
2021/05/22 06:21:24;;;;;;;4.53;3.20;;;;;;;17.61;51.73;99933.03;4918207;29;20376;-79
2021/05/22 06:23:49;;;;;;;3.92;2.75;;;;;;;17.78;51.47;99932.34;4901059;29;20032;-79
2021/05/22 06:26:15;;;;;;;4.40;2.95;;;;;;;18.04;51.08;99962.59;4918345;29;20027;-79
2021/05/22 06:28:41;;;;;;;3.88;2.85;;;;;;;17.29;50.87;99828.09;4918162;29;20467;-79
2021/05/22 06:31:06;;;;;;;5.07;2.72;;;;;;;18.20;50.60;99962.06;4917994;29;20032;-79
2021/05/22 06:33:32;;;;;;;3.42;2.40;;;;;;;18.29;50.34;99958.09;4918468;29;20099;-79
2021/05/22 06:35:58;;;;;;;3.22;2.42;;;;;;;18.19;50.35;99927.53;4918339;29;20020;-79
2021/05/22 06:38:23;;;;;;;3.75;2.45;;;;;;;18.24;50.19;99912.50;4900814;29;20048;-79
2021/05/22 06:40:49;;;;;;;3.90;2.95;;;;;;;17.48;49.83;99787.09;4901000;29;20020;-78
2021/05/22 06:43:15;;;;;;;3.30;2.55;;;;;;;18.29;49.21;99901.97;4900988;29;20028;-79
2021/05/22 06:45:45;;;;;;;4.55;3.40;;;;;;;17.99;49.23;99853.72;4901034;29;20028;-79
2021/05/22 06:48:12;;;;;;;2.92;2.60;;;;;;;17.87;48.98;99819.91;4901190;29;20032;-79
2021/05/22 06:50:38;;;;;;;3.03;2.40;;;;;;;18.60;48.73;99927.00;4918101;29;20079;-79
2021/05/22 06:53:04;;;;;;;6.18;2.85;;;;;;;18.93;48.79;99954.25;4916611;29;20028;-79
2021/05/22 06:55:30;;;;;;;2.72;2.30;;;;;;;18.90;48.48;99940.50;4900876;29;20020;-79
2021/05/22 06:57:56;;;;;;;2.58;2.13;;;;;;;18.97;47.75;99942.06;4918108;29;20024;-79
2021/05/22 07:00:21;;;;;;;2.25;1.90;;;;;;;19.20;47.81;99953.97;4917871;29;20035;-79
2021/05/22 07:02:47;;;;;;;4.15;2.15;;;;;;;19.19;47.56;99945.09;4917465;29;20061;-79
2021/05/22 07:05:13;;;;;;;7.70;3.10;;;;;;;19.10;47.94;99916.19;4905900;29;20028;-78
2021/05/22 07:07:41;;;;;;;8.05;3.08;;;;;;;19.08;47.79;99903.03;4917199;29;20024;-79
2021/05/22 07:10:07;;;;;;;4.18;2.90;;;;;;;18.73;48.20;99842.13;4900661;29;20051;-79
2021/05/22 07:12:32;;;;;;;5.13;3.50;;;;;;;18.93;48.45;99860.59;4917609;29;20028;-78
2021/05/22 07:14:58;;;;;;;6.07;3.75;;;;;;;19.34;48.57;99924.16;4900379;29;20483;-79
2021/05/22 07:17:23;;;;;;;6.72;3.10;;;;;;;18.88;48.63;99839.06;4900040;29;20080;-79
2021/05/22 07:19:49;;;;;;;4.45;3.40;;;;;;;19.03;48.61;99852.03;4916923;29;20035;-78
2021/05/22 07:22:14;;;;;;;4.53;2.47;;;;;;;19.29;48.61;99891.03;4899975;29;20034;-79
2021/05/22 07:24:40;;;;;;;5.05;3.72;;;;;;;19.14;48.77;99845.09;4917192;29;20048;-79
2021/05/22 07:27:06;;;;;;;7.03;3.65;;;;;;;19.32;48.71;99872.69;4916912;29;20028;-79
2021/05/22 07:29:32;;;;;;;3.85;3.55;;;;;;;19.42;48.71;99882.84;4900187;29;20102;-79
2021/05/22 07:31:57;;;;;;;3.72;2.90;;;;;;;19.79;48.33;99942.53;4917046;29;20491;-79
2021/05/22 07:34:23;;;;;;;5.50;3.60;;;;;;;18.36;48.46;99698.72;4900664;29;20031;-79
2021/05/22 07:36:48;;;;;;;3.47;2.75;;;;;;;19.75;48.59;99919.91;4899850;29;20178;-79
2021/05/22 07:39:15;;;;;;;3.47;3.08;;;;;;;19.85;48.25;99914.81;4916867;29;20103;-79
2021/05/22 07:41:41;;;;;;;3.95;3.03;;;;;;;19.93;47.98;99908.28;4917377;29;20502;-79
2021/05/22 07:44:07;;;;;;;4.35;3.22;;;;;;;19.96;47.88;99905.97;4916593;29;20534;-78
2021/05/22 07:46:33;;;;;;;4.82;2.72;;;;;;;20.06;47.65;99916.13;4916876;29;20024;-79
2021/05/22 07:48:58;;;;;;;2.85;2.42;;;;;;;20.30;47.27;99938.44;4917205;29;20071;-79
2021/05/22 07:51:24;;;;;;;4.72;3.00;;;;;;;20.23;47.11;99910.94;4917171;29;20031;-79
2021/05/22 07:53:49;;;;;;;2.45;2.25;;;;;;;20.17;47.08;99891.22;4900065;29;20359;-78
2021/05/22 07:56:15;;;;;;;2.85;1.90;;;;;;;20.49;46.70;99937.31;4899978;29;20024;-79
2021/05/22 07:58:40;;;;;;;3.45;2.10;;;;;;;20.24;46.37;99861.63;4899793;29;20086;-78
2021/05/22 08:01:06;;;;;;;3.35;2.13;;;;;;;20.17;46.31;99844.84;4900098;29;20027;-79
2021/05/22 08:03:32;;;;;;;1.85;1.73;;;;;;;20.75;45.88;99924.47;4916984;29;20458;-79
2021/05/22 08:05:57;;;;;;;2.00;1.83;;;;;;;20.84;45.74;99917.72;4917157;29;20554;-79
2021/05/22 08:08:22;;;;;;;3.42;2.30;;;;;;;20.82;45.64;99914.47;4900027;29;20028;-79
2021/05/22 08:10:48;;;;;;;3.50;2.05;;;;;;;20.86;45.40;99905.72;4916548;29;20407;-78
2021/05/22 08:13:14;;;;;;;3.38;2.65;;;;;;;20.94;45.50;99918.78;4916770;29;20087;-79
2021/05/22 08:15:40;;;;;;;1.80;1.67;;;;;;;21.10;45.39;99919.09;4917002;29;20024;-79
2021/05/22 08:18:07;;;;;;;2.60;2.40;;;;;;;21.17;45.37;99909.84;4916835;29;20079;-78
2021/05/22 08:20:33;;;;;;;2.63;2.28;;;;;;;21.25;45.36;99911.34;4899511;29;20462;-79
2021/05/22 08:22:58;;;;;;;2.35;1.80;;;;;;;20.73;44.93;99811.19;4899927;29;20024;-79
2021/05/22 08:25:24;;;;;;;2.08;1.90;;;;;;;21.40;44.22;99910.84;4917233;29;20060;-79
2021/05/22 08:27:52;;;;;;;2.10;1.90;;;;;;;21.37;44.05;99879.09;4916869;29;20629;-79
2021/05/22 08:30:18;;;;;;;1.70;1.60;;;;;;;21.75;43.55;99913.38;4917011;29;20039;-79
2021/05/22 08:32:44;;;;;;;1.70;1.60;;;;;;;21.61;42.95;99867.19;4918989;29;20035;-79
2021/05/22 08:35:10;;;;;;;1.95;1.75;;;;;;;21.86;42.72;99894.50;4909157;29;20063;-79
2021/05/22 08:37:36;;;;;;;1.85;1.75;;;;;;;22.18;42.29;99916.31;4899714;29;20055;-79
2021/05/22 08:40:04;;;;;;;1.73;1.50;;;;;;;21.88;42.13;99853.94;4899943;29;20063;-79
2021/05/22 08:42:30;;;;;;;1.63;1.52;;;;;;;22.02;42.03;99859.81;4916873;29;20031;-79
2021/05/22 08:45:07;;;;;;;1.52;1.42;;;;;;;22.57;41.94;99918.25;4916528;29;20107;-79
2021/05/22 08:47:32;;;;;;;1.88;1.77;;;;;;;22.43;41.35;99897.06;4902409;29;20039;-79
2021/05/22 08:50:00;;;;;;;2.10;1.90;;;;;;;22.55;41.32;99907.72;4920750;29;20103;-79
2021/05/22 08:52:26;;;;;;;1.95;1.73;;;;;;;22.24;41.54;99843.75;4920743;29;20024;-78
2021/05/22 08:54:51;;;;;;;1.90;1.80;;;;;;;22.74;41.73;99902.88;4903289;29;20134;-78
2021/05/22 08:57:17;;;;;;;2.00;1.90;;;;;;;22.95;41.16;99915.56;4920501;29;20103;-78
2021/05/22 08:59:46;;;;;;;1.70;1.60;;;;;;;23.06;40.68;99908.47;4920449;29;20035;-79
2021/05/22 09:02:15;;;;;;;1.63;1.52;;;;;;;23.20;39.90;99912.41;4920359;29;20024;-78
2021/05/22 09:05:18;;;;;;;2.13;1.52;;;;;;;23.38;38.86;99916.66;4903443;29;20036;-79
2021/05/22 09:07:47;;;;;;;3.33;1.95;;;;;;;23.30;39.07;99887.44;4919978;29;20032;-79
2021/05/22 09:10:32;;;;;;;2.00;1.75;;;;;;;23.40;38.61;99872.22;4903262;29;20035;-79
2021/05/22 09:13:04;;;;;;;3.80;1.90;;;;;;;23.63;38.54;99867.59;4903089;29;20035;-79
2021/05/22 09:15:41;;;;;;;1.85;1.52;;;;;;;23.93;35.93;99877.88;4918418;29;20115;-78
2021/05/22 09:18:10;;;;;;;1.33;1.23;;;;;;;23.98;37.24;99867.94;4919494;29;20028;-79
2021/05/22 09:20:43;;;;;;;2.03;1.50;;;;;;;23.80;37.06;99833.28;4919740;29;20035;-79
2021/05/22 09:23:14;;;;;;;1.73;1.63;;;;;;;24.03;37.07;99851.78;4902598;29;20099;-79
2021/05/22 09:25:48;;;;;;;2.22;1.75;;;;;;;24.34;36.97;99860.13;4920164;29;20442;-79
2021/05/22 09:28:25;;;;;;;2.17;1.98;;;;;;;24.61;36.61;99866.25;4919926;29;20466;-79
2021/05/22 09:30:51;;;;;;;1.33;1.13;;;;;;;24.16;35.12;99766.88;4902801;29;20063;-79
2021/05/22 09:33:22;;;;;;;1.30;1.20;;;;;;;24.48;34.67;99783.00;4902793;29;20028;-79
2021/05/22 09:35:57;;;;;;;1.20;1.10;;;;;;;25.04;34.17;99853.47;4902803;29;20063;-79
2021/05/22 09:38:36;;;;;;;1.20;1.10;;;;;;;25.36;33.20;99861.44;4919455;29;20098;-79
2021/05/22 09:41:33;;;;;;;1.38;1.00;;;;;;;25.59;32.83;99862.81;4902472;29;20032;-79
2021/05/22 09:44:22;;;;;;;2.78;1.05;;;;;;;25.67;32.82;99846.09;4919317;29;20028;-79
2021/05/22 09:46:47;;;;;;;2.13;1.52;;;;;;;25.78;32.64;99858.53;4919357;29;20036;-79
2021/05/22 09:49:31;;;;;;;1.88;1.10;;;;;;;25.60;32.22;99821.16;4902402;29;20559;-78
2021/05/22 09:51:58;;;;;;;2.25;1.20;;;;;;;25.30;32.31;99728.16;4902186;29;20127;-79
2021/05/22 09:54:43;;;;;;;1.40;1.20;;;;;;;26.24;31.89;99847.69;4902451;29;20474;-79
2021/05/22 09:57:10;;;;;;;1.60;1.08;;;;;;;26.08;31.99;99805.50;4902097;29;20522;-79
2021/05/22 09:59:36;;;;;;;2.00;1.70;;;;;;;26.42;31.70;99838.22;4901181;29;20034;-79
2021/05/22 10:02:02;;;;;;;2.17;1.08;;;;;;;26.30;30.96;99827.66;4919098;29;20103;-79
2021/05/22 10:04:28;;;;;;;1.70;1.10;;;;;;;26.21;31.00;99797.63;4909594;29;20415;-78
2021/05/22 10:06:56;;;;;;;3.88;1.20;;;;;;;26.67;30.40;99835.41;4920017;29;20035;-79
2021/05/22 10:09:24;;;;;;;2.53;1.20;;;;;;;26.76;30.23;99832.97;4902012;29;20035;-78
2021/05/22 10:12:10;;;;;;;2.42;1.35;;;;;;;26.58;30.30;99831.66;4918794;29;20024;-79
2021/05/22 10:14:41;;;;;;;1.20;1.10;;;;;;;26.25;30.75;99830.38;4917539;29;20162;-78
2021/05/22 10:17:09;;;;;;;1.23;1.10;;;;;;;25.73;30.53;99754.94;4919192;29;20020;-78
2021/05/22 10:19:36;;;;;;;1.52;1.08;;;;;;;26.08;30.38;99809.03;4901610;29;20567;-78
2021/05/22 10:22:04;;;;;;;1.27;0.93;;;;;;;25.74;30.71;99770.09;4901413;29;20435;-78
2021/05/22 10:24:30;;;;;;;1.52;1.23;;;;;;;25.75;30.86;99790.63;4901337;29;20128;-79
2021/05/22 10:26:56;;;;;;;1.02;1.00;;;;;;;25.21;31.16;99710.03;4918471;29;20080;-79
2021/05/22 10:29:23;;;;;;;2.65;1.55;;;;;;;25.63;31.24;99799.00;4917135;29;20423;-79
2021/05/22 10:31:49;;;;;;;2.28;1.00;;;;;;;25.48;30.71;99753.03;4918705;29;20032;-79
2021/05/22 10:34:16;;;;;;;1.73;1.17;;;;;;;26.01;30.43;99786.00;4901544;29;20043;-79
2021/05/22 10:36:51;;;;;;;1.67;1.10;;;;;;;26.29;29.78;99778.09;4901490;29;20024;-78
2021/05/22 10:39:40;;;;;;;2.38;1.25;;;;;;;26.43;30.05;99759.41;4900943;29;20052;-78
2021/05/22 10:42:30;;;;;;;1.70;1.40;;;;;;;26.71;29.61;99785.00;4912829;29;20072;-79
2021/05/22 10:44:56;;;;;;;1.80;0.85;;;;;;;26.52;29.37;99776.69;4894150;29;20040;-78
2021/05/22 10:47:26;;;;;;;1.63;1.52;;;;;;;26.42;29.46;99784.06;4918703;29;20036;-79
2021/05/22 10:49:52;;;;;;;1.38;1.27;;;;;;;26.44;29.61;99781.88;4901350;29;20028;-79
2021/05/22 10:52:18;;;;;;;1.42;1.33;;;;;;;25.36;29.49;99601.13;4918132;29;20024;-78
2021/05/22 10:55:02;;;;;;;2.00;1.15;;;;;;;26.51;29.01;99788.63;4918270;29;20024;-79
2021/05/22 10:57:28;;;;;;;3.78;1.10;;;;;;;26.53;29.55;99774.81;4918067;29;20028;-79
2021/05/22 11:00:18;;;;;;;2.10;1.27;;;;;;;26.56;29.54;99775.06;4900781;29;20031;-79
2021/05/22 11:02:46;;;;;;;2.40;1.73;;;;;;;26.23;29.16;99708.03;4918282;29;20027;-78
2021/05/22 11:05:22;;;;;;;2.28;1.40;;;;;;;26.99;28.96;99758.38;4900825;29;20499;-78
2021/05/22 11:07:47;;;;;;;1.65;1.48;;;;;;;27.11;28.65;99759.63;4900668;29;20039;-79
2021/05/22 11:10:40;;;;;;;1.60;1.05;;;;;;;27.34;27.63;99751.88;4900738;29;20024;-78
2021/05/22 11:13:21;;;;;;;1.98;1.20;;;;;;;27.30;28.46;99746.22;4895779;29;20423;-78
2021/05/22 11:15:50;;;;;;;;;;;;;;;27.44;28.45;99741.75;4901015;29;20024;-78
2021/05/22 11:18:18;;;;;;;3.42;1.05;;;;;;;27.73;27.99;99749.97;4916263;29;19934;-78
2021/05/22 11:21:24;;;;;;;2.15;0.80;;;;;;;27.83;26.20;99740.91;4900574;29;20081;-79
2021/05/22 11:23:59;;;;;;;1.20;0.60;;;;;;;27.88;27.05;99734.63;4909815;29;20107;-78
2021/05/22 11:26:45;;;;;;;0.80;0.80;;;;;;;28.19;27.01;99730.47;4909988;29;20052;-78
2021/05/22 11:29:11;;;;;;;2.53;0.90;;;;;;;28.30;26.08;99698.63;4886747;29;20029;-79
2021/05/22 11:31:37;;;;;;;2.08;1.33;;;;;;;28.44;26.03;99684.03;4906153;29;20028;-79
2021/05/22 11:34:25;;;;;;;2.85;1.98;;;;;;;28.90;26.27;99716.00;4905635;29;20024;-78
2021/05/22 11:37:10;;;;;;;3.90;1.55;;;;;;;28.79;26.57;99698.22;4916328;29;20040;-78